Latest Weather Observations for Yulara

IDD60801

Issued at 8:51 am CST Friday 15 November 2019 (issued every 10 minutes, with the page automatically refreshed every 10 minutes)

About weather observations | Map of weather stations | Latest weather observations for NT | Other Formats
Station Details ID: 015635 Name: YULARA AIRPORT Lat: -25.19 Lon: 130.97 Height: 492.0 m
Data from the previous 72 hours. | See also: Recent months at Yulara
Date/Time
CST
Temp
°C
App
Temp
°C
Dew
Point
°C
Rel
Hum
%
Delta-T
°C
Wind Press
QNH
hPa
Press
MSL
hPa
Rain since
9am
mm
Dir  Spd
km/h
Gust
km/h
Spd
kts
Gust
kts
15/08:30am 27.3 20.0 -11.5 7 15.1 NE 22 30 12 16 1018.3 1015.2 0.0
15/08:00am 25.3 18.9 -11.3 8 14.0 ENE 17 24 9 13 1018.2 1015.1 0.0
15/07:30am 23.0 17.3 -13.0 8 13.0 ESE 13 19 7 10 1018.0 1014.8 0.0
15/07:00am 20.6 15.2 -13.3 9 11.9 ESE 11 17 6 9 1017.5 1014.3 0.0
15/06:30am 17.7 12.0 -13.1 11 10.4 SE 13 17 7 9 1017.0 1013.8 0.0
15/06:00am 15.6 10.7 -12.7 13 9.4 SSE 9 13 5 7 1016.5 1013.4 0.0
15/05:30am 16.1 10.7 -13.3 12 9.7 SSE 11 13 6 7 1016.2 1013.1 0.0
15/05:00am 15.5 10.5 -12.8 13 9.4 S 9 13 5 7 1016.1 1012.9 0.0
15/04:30am 15.5 10.5 -12.8 13 9.4 SSE 9 11 5 6 1016.0 1012.8 0.0
15/04:00am 16.3 11.3 -13.1 12 9.8 SSE 9 11 5 6 1015.8 1012.6 0.0
15/03:30am 16.2 11.6 -13.2 12 9.8 SSE 7 11 4 6 1015.7 1012.5 0.0
15/03:00am 19.1 13.7 -13.2 10 11.1 SE 11 13 6 7 1015.6 1012.4 0.0
15/02:30am 19.5 14.2 -12.9 10 11.3 SE 11 15 6 8 1015.6 1012.4 0.0
15/02:00am 19.4 14.4 -13.0 10 11.3 SE 9 11 5 6 1015.7 1012.5 0.0
15/01:30am 18.9 13.9 -13.3 10 11.0 SE 9 11 5 6 1015.8 1012.6 0.0
15/01:00am 20.9 15.5 -13.1 9 12.0 SE 11 13 6 7 1016.0 1012.8 0.0
15/12:30am 22.2 17.2 -13.6 8 12.7 ESE 9 11 5 6 1016.1 1012.9 0.0
15/12:00am 22.2 17.6 -13.6 8 12.7 ESE 7 9 4 5 1016.3 1013.2 0.0
 
Date/Time
CST
Temp
°C
App
Temp
°C
Dew
Point
°C
Rel
Hum
%
Delta-T
°C
Wind Press
QNH
hPa
Press
MSL
hPa
Rain since
9am
mm
Dir  Spd
km/h
Gust
km/h
Spd
kts
Gust
kts
14/11:30pm 24.2 19.3 -12.1 8 13.6 E 9 13 5 7 1016.4 1013.3 0.0
14/11:00pm 24.9 19.5 -13.2 7 14.1 E 11 13 6 7 1016.4 1013.3 0.0
14/10:30pm 25.5 20.2 -12.8 7 14.3 E 11 13 6 7 1016.4 1013.3 0.0
14/10:00pm 25.6 20.8 -11.1 8 14.2 ENE 9 11 5 6 1016.3 1013.2 0.0
14/09:30pm 26.2 21.4 -10.6 8 14.4 ENE 9 11 5 6 1016.3 1013.2 0.0
14/09:00pm 27.2 22.1 -9.9 8 14.9 E 11 13 6 7 1016.2 1013.1 0.0
14/08:30pm 28.3 23.6 -9.1 8 15.4 E 9 11 5 6 1016.1 1012.9 0.0
14/08:00pm 29.4 24.6 -9.9 7 16.1 E 9 13 5 7 1016.0 1012.8 0.0
14/07:30pm 30.4 25.7 -9.2 7 16.6 ESE 9 13 5 7 1015.8 1012.6 0.0
14/07:00pm 31.8 26.4 -8.2 7 17.2 E 13 15 7 8 1015.6 1012.4 0.0
14/06:30pm 32.3 27.0 -7.8 7 17.5 ESE 13 20 7 11 1015.4 1012.2 0.0
14/06:00pm 32.4 26.7 -7.8 7 17.5 SE 15 17 8 9 1015.2 1012.0 0.0
14/05:30pm 33.0 27.3 -7.3 7 17.8 S 15 20 8 11 1015.2 1012.0 0.0
14/05:00pm 33.5 29.2 -9.0 6 18.3 S 7 17 4 9 1015.2 1012.0 0.0
14/04:30pm 33.5 27.3 -9.0 6 18.3 SSE 17 28 9 15 1015.3 1012.1 0.0
14/04:00pm 32.9 27.6 -7.4 7 17.8 SE 13 28 7 15 1015.8 1012.6 0.0
14/03:30pm 33.0 28.1 -7.3 7 17.8 ENE 11 19 6 10 1016.1 1012.9 0.0
14/03:00pm 32.4 27.6 -6.0 8 17.2 ENE 11 17 6 9 1016.5 1013.4 0.0
14/02:30pm 32.0 27.2 -6.3 8 17.0 ESE 11 20 6 11 1017.2 1014.0 0.0
14/02:00pm 31.1 26.0 -5.5 9 16.4 E 13 19 7 10 1017.7 1014.5 0.0
14/01:30pm 30.9 26.5 -5.6 9 16.3 ENE 9 22 5 12 1018.2 1015.1 0.0
14/01:00pm 30.3 24.4 -6.1 9 16.1 ESE 17 26 9 14 1018.6 1015.5 0.0
14/12:30pm 30.2 24.4 -4.8 10 15.7 NE 17 32 9 17 1019.0 1015.8 0.0
14/12:00pm 30.1 23.9 -4.8 10 15.7 ENE 19 32 10 17 1019.2 1016.0 0.0
14/11:30am 29.3 22.1 -5.4 10 15.3 E 24 41 13 22 1019.5 1016.3 0.0
14/11:00am 27.5 20.3 -5.6 11 14.4 E 24 37 13 20 1020.0 1016.9 0.0
14/10:30am 27.2 19.7 -4.6 12 14.0 E 26 37 14 20 1020.2 1017.1 0.0
14/10:00am 26.3 18.8 -4.3 13 13.5 E 26 35 14 19 1020.7 1017.6 0.0
14/09:30am 25.4 17.5 -5.0 13 13.1 E 28 35 15 19 1020.8 1017.7 0.0
14/09:00am 24.3 15.7 -4.0 15 12.3 ENE 32 39 17 21 1020.9 1017.8 0.0
14/08:30am 23.7 15.0 -3.6 16 11.9 E 33 43 18 23 1021.1 1017.9 0.0
14/08:00am 22.5 13.4 -3.7 17 11.3 E 35 44 19 24 1020.8 1017.7 0.0
14/07:30am 21.4 14.0 -3.9 18 10.7 E 26 35 14 19 1020.9 1017.8 0.0
14/07:00am 20.3 14.0 -4.0 19 10.2 ESE 20 28 11 15 1020.7 1017.6 0.0
14/06:30am 18.8 13.1 -4.0 21 9.4 ESE 17 22 9 12 1020.2 1017.1 0.0
14/06:00am 18.4 12.6 -4.3 21 9.3 ESE 17 22 9 12 1019.8 1016.6 0.0
14/05:30am 18.6 13.2 -4.1 21 9.3 E 15 20 8 11 1019.3 1016.1 0.0
14/05:00am 19.1 13.3 -4.4 20 9.7 ESE 17 20 9 11 1019.1 1015.9 0.0
14/04:30am 19.8 13.6 -4.5 19 10.0 E 19 24 10 13 1018.7 1015.6 0.0
14/04:00am 20.1 13.9 -4.9 18 10.3 E 19 24 10 13 1018.4 1015.3 0.0
14/03:30am 20.4 14.6 -4.7 18 10.4 ESE 17 24 9 13 1018.4 1015.3 0.0
14/03:00am 20.8 14.5 -4.4 18 10.5 ESE 20 26 11 14 1018.4 1015.3 0.0
14/02:30am 21.0 14.8 -4.9 17 10.7 ESE 19 26 10 14 1018.6 1015.5 0.0
14/02:00am 20.3 15.3 -4.0 19 10.2 ESE 13 19 7 10 1019.0 1015.8 0.0
14/01:30am 21.0 16.1 -3.5 19 10.4 ESE 13 19 7 10 1019.4 1016.2 0.0
14/01:00am 20.4 15.5 -3.3 20 10.1 SE 13 15 7 8 1019.7 1016.5 0.0
14/12:30am 22.1 17.2 -3.3 18 11.0 ESE 13 17 7 9 1019.9 1016.8 0.0
14/12:00am 23.0 18.5 -3.3 17 11.4 ESE 11 15 6 8 1020.3 1017.2 0.0
 
Date/Time
CST
Temp
°C
App
Temp
°C
Dew
Point
°C
Rel
Hum
%
Delta-T
°C
Wind Press
QNH
hPa
Press
MSL
hPa
Rain since
9am
mm
Dir  Spd
km/h
Gust
km/h
Spd
kts
Gust
kts
13/11:30pm 24.0 18.7 -3.3 16 12.0 ESE 15 20 8 11 1020.2 1017.1 0.0
13/11:00pm 24.7 19.1 -2.8 16 12.3 E 17 22 9 12 1020.1 1017.0 0.0
13/10:30pm 24.9 19.7 -2.6 16 12.3 ESE 15 20 8 11 1020.1 1017.0 0.0
13/10:00pm 25.7 20.1 -2.8 15 12.8 ESE 17 22 9 12 1020.2 1017.1 0.0
13/09:30pm 26.1 20.9 -2.5 15 13.0 ESE 15 20 8 11 1020.0 1016.9 0.0
13/09:00pm 26.8 21.6 -2.9 14 13.4 ESE 15 19 8 10 1019.7 1016.5 0.0
13/08:30pm 27.4 22.6 -2.4 14 13.7 E 13 19 7 10 1019.4 1016.2 0.0
13/08:00pm 28.2 22.4 -1.8 14 14.0 ENE 19 22 10 12 1019.2 1016.0 0.0
13/07:30pm 29.0 23.1 -2.2 13 14.5 E 19 24 10 13 1018.8 1015.7 0.0
13/07:00pm 29.9 24.0 -2.6 12 15.2 ESE 19 24 10 13 1018.3 1015.2 0.0
13/06:30pm 30.3 24.3 -3.4 11 15.5 ESE 19 26 10 14 1017.9 1014.7 0.0
13/06:00pm 30.7 24.7 -3.1 11 15.7 ESE 19 32 10 17 1017.7 1014.5 0.0
13/05:30pm 31.6 25.0 -3.7 10 16.4 ESE 22 30 12 16 1017.7 1014.5 0.0
13/05:00pm 31.4 25.3 -2.6 11 16.1 ESE 20 32 11 17 1017.6 1014.4 0.0
13/04:30pm 31.6 25.3 -3.7 10 16.4 E 20 30 11 16 1017.7 1014.5 0.0
13/04:00pm 31.5 25.6 -2.5 11 16.1 ESE 19 32 10 17 1017.9 1014.7 0.0
13/03:30pm 31.5 24.8 -3.8 10 16.3 ESE 22 35 12 19 1018.2 1015.1 0.0
13/03:00pm 30.8 23.9 -3.0 11 15.8 E 24 41 13 22 1018.4 1015.3 0.0
13/02:30pm 30.7 23.9 -1.9 12 15.5 E 24 39 13 21 1018.7 1015.6 0.0
13/02:00pm 30.3 23.1 -2.2 12 15.3 ENE 26 41 14 22 1019.3 1016.1 0.0
13/01:30pm 29.4 23.4 -1.9 13 14.7 E 20 33 11 18 1019.8 1016.6 0.0
13/01:00pm 28.6 21.8 -1.5 14 14.2 E 24 39 13 21 1020.2 1017.1 0.0
13/12:30pm 28.0 21.4 -0.1 16 13.5 ENE 24 35 13 19 1020.8 1017.7 0.0
13/12:00pm 28.3 21.4 0.1 16 13.6 ENE 26 35 14 19 1021.3 1018.1 0.0
13/11:30am 26.8 21.0 -0.3 17 12.8 E 20 37 11 20 1021.9 1018.8 0.0
13/11:00am 26.3 19.0 0.1 18 12.5 E 28 41 15 22 1021.8 1018.7 0.0
13/10:30am 25.1 18.2 -0.1 19 11.8 E 26 37 14 20 1022.1 1019.0 0.0
13/10:00am 25.1 18.8 1.3 21 11.5 ESE 24 33 13 18 1022.8 1019.7 0.0
13/09:30am 24.1 17.7 1.1 22 11.0 E 24 33 13 18 1023.1 1020.0 0.0
13/09:00am 23.7 15.7 1.4 23 10.7 E 33 44 18 24 1022.3 1019.2 0.0
13/08:30am 22.2 13.0 1.3 25 9.9 E 39 48 21 26 1021.8 1018.7 0.0
13/08:00am 21.4 12.7 1.7 27 9.3 ESE 37 48 20 26 1022.4 1019.3 0.0
13/07:30am 20.9 12.5 1.7 28 9.0 ESE 35 54 19 29 1022.0 1018.9 0.0
13/07:14am 20.9 13.9 2.2 29 8.9 ESE 28 48 15 26 1021.9 1018.8 0.0
13/07:00am 20.6 13.7 2.4 30 8.7 ESE 28 39 15 21 1021.7 1018.5 0.0
13/06:30am 19.9 14.2 2.7 32 8.2 ESE 22 32 12 17 1021.3 1018.1 0.0
13/06:00am 19.7 13.6 2.6 32 8.1 ESE 24 33 13 18 1020.3 1017.2 0.0
13/05:30am 19.9 13.8 2.7 32 8.2 ESE 24 35 13 19 1020.3 1017.2 0.0
13/05:00am 19.9 14.5 2.3 31 8.3 ESE 20 26 11 14 1020.0 1016.9 0.0
13/04:30am 19.8 14.5 1.7 30 8.5 SE 19 26 10 14 1020.1 1017.0 0.0
13/04:00am 20.1 15.0 1.0 28 8.8 ESE 17 32 9 17 1019.4 1016.2 0.0
13/03:30am 19.1 15.1 0.2 28 8.5 SE 11 13 6 7 1019.7 1016.5 0.0
13/03:00am 19.8 14.9 -0.2 26 9.0 SE 15 20 8 11 1019.8 1016.6 0.0
13/02:30am 20.3 15.8 -0.3 25 9.3 SSE 13 17 7 9 1019.9 1016.8 0.0
13/02:00am 21.2 16.4 -0.1 24 9.7 SSE 15 19 8 10 1020.1 1017.0 0.0
13/01:30am 22.0 16.7 -0.7 22 10.3 SSE 17 24 9 13 1020.3 1017.2 0.0
13/01:00am 22.8 17.1 -0.6 21 10.7 SSE 19 26 10 14 1020.4 1017.3 0.0
13/12:30am 23.4 17.6 -1.5 19 11.2 SSE 19 26 10 14 1020.5 1017.4 0.0
13/12:00am 24.2 18.4 -1.6 18 11.7 SSE 19 24 10 13 1020.4 1017.3 0.0
 
Date/Time
CST
Temp
°C
App
Temp
°C
Dew
Point
°C
Rel
Hum
%
Delta-T
°C
Wind Press
QNH
hPa
Press
MSL
hPa
Rain since
9am
mm
Dir  Spd
km/h
Gust
km/h
Spd
kts
Gust
kts
12/11:30pm 25.2 19.3 -0.8 18 12.1 SSE 20 32 11 17 1020.4 1017.3 0.0
12/11:00pm 25.9 19.2 -1.0 17 12.5 SE 24 32 13 17 1020.4 1017.3 0.0
12/10:30pm 26.5 19.5 -0.5 17 12.7 SE 26 39 14 21 1020.3 1017.2 0.0
12/10:00pm 27.0 19.9 -0.9 16 13.1 SE 26 35 14 19 1020.0 1016.9 0.0
12/09:30pm 27.7 21.1 -0.4 16 13.4 SSE 24 35 13 19 1019.6 1016.4 0.0
12/09:00pm 28.4 21.5 0.2 16 13.7 SSE 26 37 14 20 1019.2 1016.0 0.0
12/08:30pm 29.1 22.5 -0.1 15 14.1 SSE 24 35 13 19 1018.6 1015.5 0.0
12/08:00pm 29.9 23.3 -0.5 14 14.7 SSE 24 37 13 20 1017.9 1014.7 0.0
12/07:30pm 30.5 23.1 -1.0 13 15.2 SSE 28 43 15 23 1017.3 1014.1 0.0
12/07:00pm 31.4 23.1 -1.4 12 15.8 S 32 41 17 22 1016.6 1013.5 0.0
12/06:30pm 33.1 25.8 -2.6 10 17.0 SSE 26 37 14 20 1016.0 1012.8 0.0
12/06:00pm 34.4 27.5 -3.0 9 17.9 SE 24 37 13 20 1015.5 1012.3 0.0
12/05:30pm 34.8 26.8 -2.7 9 18.1 SE 30 43 16 23 1015.0 1011.8 0.0
12/05:00pm 34.9 28.4 -2.6 9 18.1 SE 22 33 12 18 1014.9 1011.7 0.0
12/04:30pm 34.9 28.0 -2.6 9 18.1 SE 24 39 13 21 1014.7 1011.5 0.0
12/04:00pm 36.1 29.3 -1.7 9 18.7 SE 24 35 13 19 1014.7 1011.5 0.0
12/03:30pm 35.1 27.8 -2.5 9 18.2 SE 26 39 14 21 1014.7 1011.5 0.0
12/03:12pm 35.5 27.5 -2.2 9 18.4 SE 30 48 16 26 1014.4 1011.3 0.0
12/03:00pm 35.2 29.1 -2.4 9 18.3 SE 20 33 11 18 1014.7 1011.5 0.0
12/02:30pm 34.9 28.0 -2.6 9 18.1 SE 24 41 13 22 1014.9 1011.7 0.0
12/02:00pm 34.7 28.2 -2.8 9 18.1 SE 22 39 12 21 1015.4 1012.2 0.0
12/01:30pm 34.7 27.8 -2.8 9 18.0 ESE 24 39 13 21 1015.7 1012.5 0.0
12/01:00pm 33.9 26.7 -2.0 10 17.4 SE 26 37 14 20 1016.0 1012.8 0.0
12/12:34pm 33.1 25.4 -2.6 10 17.1 SE 28 46 15 25 1016.3 1013.2 0.0
12/12:30pm 33.5 26.3 -2.3 10 17.2 ESE 26 46 14 25 1016.3 1013.2 0.0
12/12:00pm 32.4 24.8 -1.8 11 16.5 SE 28 41 15 22 1016.6 1013.5 0.0
12/11:30am 31.8 25.1 -1.1 12 16.0 SE 24 35 13 19 1017.0 1013.8 0.0
12/11:00am 30.1 24.4 0.6 15 14.6 SE 20 35 11 19 1017.4 1014.2 0.0
12/10:30am 29.9 23.2 1.4 16 14.2 SE 26 39 14 21 1017.7 1014.5 0.0
12/10:00am 29.1 22.8 1.6 17 13.7 SE 24 35 13 19 1017.8 1014.6 0.0
12/09:30am 27.9 21.8 2.9 20 12.7 SE 24 33 13 18 1017.9 1014.7 0.0
12/09:00am 26.6 20.2 3.2 22 11.8 SE 26 39 14 21 1017.5 1014.3 0.0

Other formats

Comma delimited format used in spreadsheet applications
http://www.bom.gov.au/fwo/IDD60801/IDD60801.94462.axf

JavaScript Object Notation format (JSON) in row-major order
http://www.bom.gov.au/fwo/IDD60801/IDD60801.94462.json

Data quality

Most of these data are generated automatically and are frequently updated. Quality checks on data are not normally performed. It is possible for incorrect values to appear. Refer to information at About Latest Weather Observations and please check the disclaimer before using these data.